createdAt,value
2023-05-25T00:01:29.579Z,6.05
2023-05-25T00:03:56.051Z,5.03
2023-05-25T00:06:25.308Z,5.60
2023-05-25T00:08:54.684Z,6.30
2023-05-25T00:11:22.657Z,6.18
2023-05-25T00:13:49.154Z,5.53
2023-05-25T00:16:15.590Z,5.63
2023-05-25T00:18:42.589Z,5.78
2023-05-25T00:21:09.122Z,5.82
2023-05-25T00:23:36.165Z,5.72
2023-05-25T00:26:03.424Z,5.82
2023-05-25T00:28:29.792Z,6.13
2023-05-25T00:30:56.241Z,6.00
2023-05-25T00:33:22.618Z,6.47
2023-05-25T00:35:49.339Z,7.28
2023-05-25T00:38:17.187Z,6.82
2023-05-25T00:40:44.718Z,6.28
2023-05-25T00:43:12.461Z,6.63
2023-05-25T00:45:39.278Z,5.72
2023-05-25T00:48:06.348Z,6.13
2023-05-25T00:50:37.508Z,6.40
2023-05-25T00:53:04.053Z,5.60
2023-05-25T00:55:33.174Z,6.50
2023-05-25T00:58:03.402Z,6.00
2023-05-25T01:00:32.228Z,6.47
2023-05-25T01:02:59.319Z,6.78
2023-05-25T01:05:28.389Z,6.40
2023-05-25T01:07:58.883Z,6.57
2023-05-25T01:10:26.239Z,5.95
2023-05-25T01:12:54.767Z,6.07
2023-05-25T01:15:22.754Z,6.85
2023-05-25T01:17:53.232Z,6.05
2023-05-25T01:20:19.919Z,6.32
2023-05-25T01:22:53.742Z,7.00
2023-05-25T01:25:24.660Z,6.53
2023-05-25T01:27:56.991Z,6.80
2023-05-25T01:30:25.868Z,7.32
2023-05-25T01:32:53.752Z,6.75
2023-05-25T01:35:21.167Z,6.35
2023-05-25T01:37:49.323Z,6.63
2023-05-25T01:40:15.984Z,6.57
2023-05-25T01:42:42.348Z,6.30
2023-05-25T01:45:10.903Z,6.32
2023-05-25T01:47:53.649Z,7.45
2023-05-25T01:50:26.392Z,6.30
2023-05-25T01:52:59.333Z,6.80
2023-05-25T01:55:28.578Z,6.80
2023-05-25T01:57:58.668Z,7.55
2023-05-25T02:00:26.820Z,7.90
2023-05-25T02:02:54.281Z,7.63
2023-05-25T02:05:22.056Z,7.65
2023-05-25T02:07:48.573Z,8.05
2023-05-25T02:10:15.741Z,8.23
2023-05-25T02:12:42.114Z,8.93
2023-05-25T02:15:09.134Z,9.05
2023-05-25T02:17:36.468Z,8.77
2023-05-25T02:20:03.964Z,10.13
2023-05-25T02:22:30.664Z,9.95
2023-05-25T02:24:57.037Z,11.02
2023-05-25T02:27:24.109Z,11.35
2023-05-25T02:29:52.456Z,11.10
2023-05-25T02:32:18.965Z,10.98
2023-05-25T02:34:46.206Z,11.73
2023-05-25T02:37:12.582Z,11.95
2023-05-25T02:39:39.356Z,12.35
2023-05-25T02:42:05.917Z,12.95
2023-05-25T02:44:32.965Z,13.38
2023-05-25T02:46:59.582Z,13.13
2023-05-25T02:49:26.029Z,13.65
2023-05-25T02:51:52.331Z,16.20
2023-05-25T02:54:18.659Z,15.80
2023-05-25T02:56:45.052Z,16.38
2023-05-25T02:59:11.574Z,17.83
2023-05-25T03:01:40.012Z,16.60
2023-05-25T03:04:06.380Z,17.15
2023-05-25T03:06:32.822Z,17.15
2023-05-25T03:08:59.146Z,17.50
2023-05-25T03:11:26.169Z,17.65
2023-05-25T03:13:52.486Z,16.55
2023-05-25T03:16:18.923Z,17.85
2023-05-25T03:18:45.913Z,18.30
2023-05-25T03:21:12.248Z,18.33
2023-05-25T03:23:38.584Z,17.65
2023-05-25T03:26:05.070Z,17.85
2023-05-25T03:28:31.403Z,18.20
2023-05-25T03:30:57.735Z,19.30
2023-05-25T03:33:24.099Z,18.40
2023-05-25T03:35:51.049Z,18.75
2023-05-25T03:38:17.422Z,18.33
2023-05-25T03:40:43.760Z,18.40
2023-05-25T03:43:10.122Z,17.40
2023-05-25T03:45:36.458Z,17.45
2023-05-25T03:48:02.884Z,17.40
2023-05-25T03:50:29.199Z,17.75
2023-05-25T03:52:56.194Z,17.27
2023-05-25T03:55:22.535Z,17.27
2023-05-25T03:57:48.896Z,16.35
2023-05-25T04:00:16.212Z,16.40
2023-05-25T04:02:42.662Z,17.13
2023-05-25T04:05:09.791Z,16.25
2023-05-25T04:07:36.603Z,15.68
2023-05-25T04:10:03.869Z,15.75
2023-05-25T04:12:30.408Z,15.85
2023-05-25T04:14:56.724Z,15.98
2023-05-25T04:17:24.418Z,15.82
2023-05-25T04:19:51.273Z,14.77
2023-05-25T04:22:18.000Z,16.60
2023-05-25T04:24:44.691Z,15.48
2023-05-25T04:27:11.780Z,14.43
2023-05-25T04:29:38.151Z,14.98
2023-05-25T04:32:05.451Z,15.25
2023-05-25T04:34:33.108Z,15.25
2023-05-25T04:37:04.755Z,15.73
2023-05-25T04:39:32.071Z,14.18
2023-05-25T04:41:58.539Z,14.40
2023-05-25T04:44:29.056Z,15.63
2023-05-25T04:46:55.458Z,13.93
2023-05-25T04:49:22.296Z,15.40
2023-05-25T04:51:48.652Z,15.15
2023-05-25T04:54:15.102Z,14.05
2023-05-25T04:56:41.477Z,14.75
2023-05-25T04:59:07.834Z,14.15
2023-05-25T05:01:39.872Z,15.45
2023-05-25T05:04:06.478Z,15.75
2023-05-25T05:06:33.615Z,16.25
2023-05-25T05:09:00.528Z,16.52
2023-05-25T05:11:27.590Z,15.88
2023-05-25T05:13:54.113Z,15.27
2023-05-25T05:16:20.523Z,15.63
2023-05-25T05:18:47.607Z,15.98
2023-05-25T05:21:14.001Z,15.65
2023-05-25T05:23:42.502Z,17.23
2023-05-25T05:26:10.748Z,16.60
2023-05-25T05:28:37.142Z,16.73
2023-05-25T05:31:03.642Z,16.67
2023-05-25T05:33:30.564Z,16.80
2023-05-25T05:35:57.608Z,16.23
2023-05-25T05:38:23.981Z,15.18
2023-05-25T05:40:50.416Z,16.92
2023-05-25T05:43:16.822Z,15.43
2023-05-25T05:45:43.561Z,15.95
2023-05-25T05:48:10.362Z,17.08
2023-05-25T05:50:36.910Z,16.67
2023-05-25T05:53:04.390Z,15.55
2023-05-25T05:55:30.782Z,16.13
2023-05-25T05:57:57.185Z,15.75
2023-05-25T06:00:23.942Z,17.13
2023-05-25T06:02:50.791Z,16.83
2023-05-25T06:05:17.941Z,16.10
2023-05-25T06:07:44.631Z,16.15
2023-05-25T06:10:11.867Z,16.42
2023-05-25T06:12:38.215Z,15.73
2023-05-25T06:15:05.710Z,15.57
2023-05-25T06:17:32.110Z,16.95
2023-05-25T06:19:58.667Z,15.75
2023-05-25T06:22:27.229Z,16.88
2023-05-25T06:24:53.673Z,16.85
2023-05-25T06:27:22.404Z,15.43
2023-05-25T06:29:48.722Z,15.93
2023-05-25T06:32:15.564Z,14.43
2023-05-25T06:34:42.010Z,15.13
2023-05-25T06:37:08.455Z,15.02
2023-05-25T06:39:34.889Z,16.73
2023-05-25T06:42:01.309Z,16.27
2023-05-25T06:44:28.381Z,15.50
2023-05-25T06:46:54.791Z,15.60
2023-05-25T06:49:21.435Z,15.98
2023-05-25T06:51:48.312Z,15.55
2023-05-25T06:54:14.904Z,16.23
2023-05-25T06:56:41.374Z,16.17
2023-05-25T06:59:07.762Z,16.80
2023-05-25T07:01:35.827Z,16.73
2023-05-25T07:04:02.218Z,15.82
2023-05-25T07:06:28.598Z,16.30
2023-05-25T07:08:55.100Z,16.23
2023-05-25T07:11:22.599Z,16.83
2023-05-25T07:13:49.060Z,15.50
2023-05-25T07:16:15.614Z,15.50
2023-05-25T07:18:42.670Z,14.68
2023-05-25T07:21:09.330Z,15.35
2023-05-25T07:23:35.699Z,14.65
2023-05-25T07:26:04.216Z,14.98
2023-05-25T07:28:32.034Z,15.02
2023-05-25T07:30:58.440Z,15.25
2023-05-25T07:33:24.890Z,15.93
2023-05-25T07:35:52.016Z,14.45
2023-05-25T07:38:18.403Z,14.88
2023-05-25T07:40:46.634Z,15.68
2023-05-25T07:43:13.048Z,13.93
2023-05-25T07:45:39.750Z,14.50
2023-05-25T07:48:07.229Z,15.43
2023-05-25T07:50:33.694Z,14.32
2023-05-25T07:53:00.753Z,14.82
2023-05-25T07:55:27.235Z,16.02
2023-05-25T07:57:53.580Z,14.60
2023-05-25T08:00:20.842Z,14.48
2023-05-25T08:02:47.341Z,13.88
2023-05-25T08:05:13.967Z,14.18
2023-05-25T08:07:42.740Z,14.57
2023-05-25T08:10:10.708Z,13.27
2023-05-25T08:12:47.945Z,13.48
2023-05-25T08:15:14.892Z,14.77
2023-05-25T08:17:41.360Z,14.20
2023-05-25T08:20:09.781Z,14.35
2023-05-25T08:22:36.235Z,13.85
2023-05-25T08:25:03.818Z,14.05
2023-05-25T08:27:32.363Z,14.70
2023-05-25T08:30:00.937Z,14.13
2023-05-25T08:32:27.494Z,13.88
2023-05-25T08:34:53.925Z,13.95
2023-05-25T08:37:21.912Z,12.55
2023-05-25T08:39:51.371Z,12.45
2023-05-25T08:42:17.869Z,13.45
2023-05-25T08:44:45.785Z,13.80
2023-05-25T08:47:12.766Z,12.48
2023-05-25T08:49:40.559Z,13.07
2023-05-25T08:52:13.128Z,12.68
2023-05-25T08:54:43.148Z,12.35
2023-05-25T08:57:14.695Z,12.25
2023-05-25T08:59:47.285Z,11.65
2023-05-25T09:02:25.038Z,11.32
2023-05-25T09:04:52.075Z,11.38
2023-05-25T09:07:18.986Z,12.27
2023-05-25T09:09:47.393Z,12.02
2023-05-25T09:12:15.030Z,12.52
2023-05-25T09:14:44.962Z,12.05
2023-05-25T09:17:12.992Z,11.35
2023-05-25T09:19:39.388Z,11.95
2023-05-25T09:22:15.086Z,11.57
2023-05-25T09:24:43.490Z,10.90
2023-05-25T09:27:11.681Z,12.05
2023-05-25T09:29:38.198Z,12.45
2023-05-25T09:32:05.367Z,11.30
2023-05-25T09:34:33.451Z,11.98
2023-05-25T09:37:00.240Z,12.38
2023-05-25T09:39:27.301Z,11.75
2023-05-25T09:41:53.785Z,12.23
2023-05-25T09:44:20.446Z,12.55
2023-05-25T09:46:46.920Z,13.15
2023-05-25T09:49:13.810Z,12.02
2023-05-25T09:51:41.027Z,12.93
2023-05-25T09:54:10.288Z,12.13
2023-05-25T09:56:36.899Z,11.18
2023-05-25T09:59:03.579Z,12.82
2023-05-25T10:01:31.999Z,12.82
2023-05-25T10:04:04.404Z,12.68
2023-05-25T10:06:32.865Z,11.60
2023-05-25T10:09:01.282Z,11.98
2023-05-25T10:11:28.933Z,11.18
2023-05-25T10:13:56.063Z,11.32
2023-05-25T10:16:26.342Z,11.85
2023-05-25T10:19:00.805Z,11.75
2023-05-25T10:21:30.403Z,11.60
2023-05-25T10:24:05.784Z,11.10
2023-05-25T10:26:36.371Z,10.68
2023-05-25T10:29:04.133Z,11.13
2023-05-25T10:31:33.289Z,10.30
2023-05-25T10:34:00.804Z,10.48
2023-05-25T10:36:27.492Z,10.00
2023-05-25T10:38:54.987Z,9.90
2023-05-25T10:41:22.417Z,10.32
2023-05-25T10:43:49.504Z,10.25
2023-05-25T10:46:18.010Z,9.55
2023-05-25T10:48:47.976Z,9.90
2023-05-25T10:51:14.835Z,9.73
2023-05-25T10:53:44.551Z,9.65
2023-05-25T10:56:12.608Z,10.02
2023-05-25T10:58:43.062Z,9.38
2023-05-25T11:01:11.519Z,9.75
2023-05-25T11:03:49.110Z,9.70
2023-05-25T11:06:16.807Z,9.23
2023-05-25T11:08:51.014Z,9.25
2023-05-25T11:11:17.608Z,9.40
2023-05-25T11:13:45.621Z,9.25
2023-05-25T11:16:23.589Z,9.40
2023-05-25T11:18:52.388Z,9.75
2023-05-25T11:21:40.259Z,9.23
2023-05-25T11:24:13.563Z,8.63
2023-05-25T11:26:54.169Z,8.48
2023-05-25T11:29:21.652Z,9.00
2023-05-25T11:31:52.631Z,9.27
2023-05-25T11:34:21.449Z,8.02
2023-05-25T11:36:47.792Z,8.40
2023-05-25T11:39:22.272Z,7.93
2023-05-25T11:41:53.898Z,9.75
2023-05-25T11:44:27.672Z,9.02
2023-05-25T11:46:56.656Z,9.82
2023-05-25T11:49:23.982Z,9.93
2023-05-25T11:51:50.561Z,8.90
2023-05-25T11:54:24.792Z,8.55
2023-05-25T11:56:51.449Z,9.18
2023-05-25T11:59:18.182Z,9.00
2023-05-25T12:01:55.451Z,8.50
2023-05-25T12:04:23.979Z,9.15
2023-05-25T12:06:50.912Z,9.18
2023-05-25T12:09:21.230Z,9.40
2023-05-25T12:11:48.139Z,8.98
2023-05-25T12:14:15.846Z,9.07
2023-05-25T12:16:42.873Z,8.60
2023-05-25T12:19:10.884Z,8.55
2023-05-25T12:21:39.163Z,8.55
2023-05-25T12:24:06.456Z,7.35
2023-05-25T12:26:33.105Z,7.72
2023-05-25T12:29:00.525Z,8.57
2023-05-25T12:31:28.214Z,8.15
2023-05-25T12:34:10.719Z,8.57
2023-05-25T12:36:45.918Z,8.98
2023-05-25T12:39:13.978Z,7.90
2023-05-25T12:41:47.446Z,8.70
2023-05-25T12:44:21.447Z,8.32
2023-05-25T12:46:48.475Z,8.38
2023-05-25T12:49:26.033Z,8.52
2023-05-25T12:51:52.742Z,9.02
2023-05-25T12:54:36.993Z,8.63
2023-05-25T12:57:05.037Z,8.82
2023-05-25T12:59:32.185Z,8.73
2023-05-25T13:01:58.654Z,8.75
2023-05-25T13:04:25.810Z,8.00
2023-05-25T13:06:52.404Z,8.25
2023-05-25T13:09:18.757Z,8.40
2023-05-25T13:11:45.212Z,8.80
2023-05-25T13:14:11.581Z,9.02
2023-05-25T13:16:43.863Z,8.80
2023-05-25T13:19:10.292Z,8.65
2023-05-25T13:21:37.312Z,9.32
2023-05-25T13:24:03.797Z,10.57
2023-05-25T13:26:30.139Z,9.70
2023-05-25T13:28:56.588Z,9.02
2023-05-25T13:31:25.450Z,9.95
2023-05-25T13:33:51.976Z,9.18
2023-05-25T13:36:18.386Z,10.63
2023-05-25T13:38:45.628Z,8.70
2023-05-25T13:41:12.199Z,10.20
2023-05-25T13:43:38.573Z,9.60
2023-05-25T13:46:04.995Z,9.45
2023-05-25T13:48:31.434Z,9.10
2023-05-25T13:51:02.423Z,9.10
2023-05-25T13:53:28.935Z,8.77
2023-05-25T13:55:55.983Z,9.23
2023-05-25T13:58:24.167Z,9.02
2023-05-25T14:00:50.921Z,8.70
2023-05-25T14:03:17.380Z,8.15
2023-05-25T14:05:44.027Z,8.70
2023-05-25T14:08:11.932Z,10.32
2023-05-25T14:10:38.523Z,9.82
2023-05-25T14:13:05.547Z,11.32
2023-05-25T14:15:31.942Z,11.70
2023-05-25T14:17:58.406Z,10.10
2023-05-25T14:20:25.658Z,10.43
2023-05-25T14:22:52.422Z,10.68
2023-05-25T14:25:18.999Z,9.63
2023-05-25T14:27:45.450Z,9.48
2023-05-25T14:30:12.883Z,10.85
2023-05-25T14:32:39.318Z,10.13
2023-05-25T14:35:06.647Z,9.73
2023-05-25T14:37:33.003Z,11.20
2023-05-25T14:39:59.935Z,11.55
2023-05-25T14:42:26.311Z,11.77
2023-05-25T14:44:52.654Z,11.25
2023-05-25T14:47:20.166Z,10.98
2023-05-25T14:49:46.675Z,11.38
2023-05-25T14:52:13.054Z,11.63
2023-05-25T14:54:43.968Z,10.82
2023-05-25T14:57:10.795Z,11.73
2023-05-25T14:59:37.253Z,10.00
2023-05-25T15:02:04.099Z,9.88
2023-05-25T15:04:31.204Z,9.77
2023-05-25T15:06:57.771Z,8.68
2023-05-25T15:09:24.198Z,9.88
2023-05-25T15:11:50.596Z,8.10
2023-05-25T15:14:16.938Z,9.05
2023-05-25T15:16:43.559Z,8.07
2023-05-25T15:19:12.691Z,7.50
2023-05-25T15:21:40.939Z,8.68
2023-05-25T15:24:07.355Z,7.55
2023-05-25T15:26:33.684Z,7.93
2023-05-25T15:29:00.108Z,7.60
2023-05-25T15:31:26.493Z,6.95
2023-05-25T15:33:58.678Z,8.32
2023-05-25T15:36:25.721Z,8.73
2023-05-25T15:38:52.885Z,7.78
2023-05-25T15:41:19.235Z,9.60
2023-05-25T15:43:50.800Z,8.65
2023-05-25T15:46:17.265Z,8.82
2023-05-25T15:48:43.618Z,8.13
2023-05-25T15:51:10.323Z,8.02
2023-05-25T15:53:36.669Z,8.02
2023-05-25T15:56:03.764Z,8.35
2023-05-25T15:58:33.430Z,7.95
2023-05-25T16:01:08.319Z,7.90
2023-05-25T16:03:34.825Z,7.70
2023-05-25T16:06:01.730Z,7.10
2023-05-25T16:08:28.061Z,7.63
2023-05-25T16:10:54.414Z,7.18
2023-05-25T16:13:21.430Z,8.68
2023-05-25T16:15:47.845Z,8.27
2023-05-25T16:18:15.823Z,7.50
2023-05-25T16:20:43.093Z,8.18
2023-05-25T16:23:09.536Z,7.20
2023-05-25T16:25:35.955Z,7.55
2023-05-25T16:28:02.357Z,7.85
2023-05-25T16:30:29.368Z,7.20
2023-05-25T16:32:55.745Z,7.00
2023-05-25T16:35:22.171Z,6.55
2023-05-25T16:37:48.545Z,7.25
2023-05-25T16:40:14.980Z,6.82
2023-05-25T16:42:41.347Z,6.28
2023-05-25T16:45:08.655Z,6.75
2023-05-25T16:47:35.824Z,6.80
2023-05-25T16:50:02.298Z,7.95
2023-05-25T16:52:28.639Z,9.10
2023-05-25T16:54:55.608Z,9.00
2023-05-25T16:57:29.280Z,7.65
2023-05-25T16:59:55.763Z,8.10
2023-05-25T17:02:22.253Z,6.60
2023-05-25T17:04:49.401Z,7.97
2023-05-25T17:07:17.662Z,7.03
2023-05-25T17:09:44.361Z,7.00
2023-05-25T17:12:10.790Z,6.85
2023-05-25T17:14:37.321Z,6.90
2023-05-25T17:17:09.607Z,7.07
2023-05-25T17:19:35.983Z,6.43
2023-05-25T17:22:03.006Z,7.47
2023-05-25T17:24:29.354Z,11.93
2023-05-25T17:26:55.809Z,7.30
2023-05-25T17:29:22.181Z,7.35
2023-05-25T17:31:49.374Z,13.10
2023-05-25T17:34:15.835Z,6.00
2023-05-25T17:36:42.534Z,5.97
2023-05-25T17:39:09.538Z,6.10
2023-05-25T17:41:35.936Z,5.28
2023-05-25T17:44:02.410Z,6.38
2023-05-25T17:46:29.022Z,5.30
2023-05-25T17:48:55.554Z,6.20
2023-05-25T17:51:23.481Z,6.22
2023-05-25T17:53:49.910Z,5.72
2023-05-25T17:56:17.058Z,6.38
2023-05-25T17:58:46.593Z,5.90
2023-05-25T18:01:13.364Z,6.60
2023-05-25T18:03:40.495Z,6.22
2023-05-25T18:06:07.002Z,6.60
2023-05-25T18:08:33.442Z,6.53
2023-05-25T18:10:59.821Z,6.60
2023-05-25T18:13:26.881Z,7.47
2023-05-25T18:15:53.554Z,8.02
2023-05-25T18:18:22.466Z,7.75
2023-05-25T18:20:48.965Z,7.72
2023-05-25T18:23:15.567Z,7.68
2023-05-25T18:25:42.052Z,7.10
2023-05-25T18:28:08.518Z,8.32
2023-05-25T18:30:35.497Z,15.27
2023-05-25T18:33:01.909Z,23.85
2023-05-25T18:35:28.317Z,19.17
2023-05-25T18:37:54.695Z,30.92
2023-05-25T18:40:21.110Z,40.72
2023-05-25T18:42:47.480Z,31.50
2023-05-25T18:45:14.412Z,22.27
2023-05-25T18:47:41.563Z,19.05
2023-05-25T18:50:08.740Z,15.77
2023-05-25T18:52:35.090Z,12.73
2023-05-25T18:55:01.535Z,11.52
2023-05-25T18:57:28.236Z,10.50
2023-05-25T18:59:54.765Z,10.05
2023-05-25T19:02:21.305Z,9.48
2023-05-25T19:04:48.516Z,10.38
2023-05-25T19:07:14.891Z,10.15
2023-05-25T19:09:41.629Z,10.57
2023-05-25T19:12:08.613Z,10.10
2023-05-25T19:14:34.975Z,10.23
2023-05-25T19:17:01.404Z,11.05
2023-05-25T19:19:27.809Z,13.00
2023-05-25T19:21:54.884Z,30.27
2023-05-25T19:24:21.262Z,42.33
2023-05-25T19:26:49.654Z,61.28
2023-05-25T19:29:16.379Z,72.05
2023-05-25T19:31:42.844Z,82.25
2023-05-25T19:34:09.264Z,88.20
2023-05-25T19:36:35.990Z,78.38
2023-05-25T19:39:04.123Z,59.47
2023-05-25T19:41:30.502Z,37.47
2023-05-25T19:43:56.864Z,27.00
2023-05-25T19:46:23.297Z,22.42
2023-05-25T19:48:49.978Z,19.42
2023-05-25T19:51:16.420Z,16.00
2023-05-25T19:53:42.784Z,15.95
2023-05-25T19:56:09.814Z,13.02
2023-05-25T19:58:36.202Z,13.70
2023-05-25T20:01:02.652Z,14.02
2023-05-25T20:03:29.349Z,14.65
2023-05-25T20:05:57.110Z,13.98
2023-05-25T20:08:24.777Z,13.40
2023-05-25T20:10:52.062Z,13.93
2023-05-25T20:13:19.192Z,13.10
2023-05-25T20:15:45.887Z,13.77
2023-05-25T20:18:12.729Z,13.13
2023-05-25T20:20:39.263Z,13.95
2023-05-25T20:23:05.860Z,13.95
2023-05-25T20:25:32.245Z,13.30
2023-05-25T20:27:58.677Z,13.65
2023-05-25T20:30:26.272Z,13.05
2023-05-25T20:32:52.720Z,13.52
2023-05-25T20:35:19.152Z,14.60
2023-05-25T20:37:45.707Z,15.45
2023-05-25T20:40:13.007Z,15.55
2023-05-25T20:42:39.351Z,15.63
2023-05-25T20:45:06.748Z,15.38
2023-05-25T20:47:33.945Z,15.82
2023-05-25T20:50:00.404Z,15.35
2023-05-25T20:52:26.753Z,14.68
2023-05-25T20:54:53.090Z,14.75
2023-05-25T20:57:19.445Z,15.68
2023-05-25T20:59:45.799Z,14.68
2023-05-25T21:02:12.244Z,15.40
2023-05-25T21:04:39.319Z,15.68
2023-05-25T21:07:05.738Z,16.55
2023-05-25T21:09:32.090Z,16.80
2023-05-25T21:11:58.564Z,16.58
2023-05-25T21:14:26.533Z,16.50
2023-05-25T21:16:52.941Z,15.30
2023-05-25T21:19:19.485Z,16.38
2023-05-25T21:21:46.506Z,15.70
2023-05-25T21:24:12.847Z,15.70
2023-05-25T21:26:39.400Z,16.35
2023-05-25T21:29:06.918Z,15.90
2023-05-25T21:31:33.331Z,15.93
2023-05-25T21:34:00.434Z,16.95
2023-05-25T21:36:27.051Z,15.55
2023-05-25T21:38:54.058Z,15.73
2023-05-25T21:41:20.456Z,14.80
2023-05-25T21:43:47.057Z,15.40
2023-05-25T21:46:13.422Z,16.13
2023-05-25T21:48:39.759Z,16.50
2023-05-25T21:51:06.131Z,16.75
2023-05-25T21:53:34.687Z,15.50
2023-05-25T21:56:03.043Z,17.00
2023-05-25T21:58:29.407Z,16.38
2023-05-25T22:00:55.784Z,17.67
2023-05-25T22:03:22.141Z,19.60
2023-05-25T22:05:48.676Z,25.75
2023-05-25T22:08:15.062Z,37.10
2023-05-25T22:10:41.502Z,47.45
2023-05-25T22:13:08.546Z,49.42
2023-05-25T22:15:34.928Z,48.78
2023-05-25T22:18:01.367Z,44.55
2023-05-25T22:20:27.854Z,34.13
2023-05-25T22:22:54.193Z,25.85
2023-05-25T22:25:20.664Z,25.52
2023-05-25T22:27:46.995Z,21.55
2023-05-25T22:30:14.288Z,20.65
2023-05-25T22:32:40.662Z,19.67
2023-05-25T22:35:07.885Z,18.40
2023-05-25T22:37:34.257Z,18.65
2023-05-25T22:40:00.675Z,18.50
2023-05-25T22:42:27.054Z,20.73
2023-05-25T22:44:53.401Z,20.27
2023-05-25T22:47:20.419Z,19.67
2023-05-25T22:49:46.792Z,19.15
2023-05-25T23:00:10.887Z,17.52
2023-05-25T23:02:37.309Z,18.25
2023-05-25T23:05:05.602Z,18.65
2023-05-25T23:07:32.157Z,18.50
2023-05-25T23:09:58.485Z,19.95
2023-05-25T23:12:24.939Z,20.77
2023-05-25T23:14:52.716Z,19.77
2023-05-25T23:17:19.116Z,17.30
2023-05-25T23:19:45.525Z,18.80
2023-05-25T23:22:11.854Z,17.90
2023-05-25T23:24:38.307Z,17.88
2023-05-25T23:27:06.084Z,19.08
2023-05-25T23:29:32.490Z,17.42
2023-05-25T23:31:59.668Z,17.17
2023-05-25T23:34:26.122Z,16.80
2023-05-25T23:36:53.353Z,17.50
2023-05-25T23:39:19.717Z,17.73
2023-05-25T23:41:46.097Z,17.42
2023-05-25T23:44:12.545Z,16.38
2023-05-25T23:46:38.958Z,16.77
2023-05-25T23:49:06.020Z,17.20
2023-05-25T23:51:32.516Z,16.95
2023-05-25T23:53:58.871Z,17.98
2023-05-25T23:56:27.103Z,16.17
2023-05-25T23:58:53.609Z,15.85
